sensor_id;sensor_type;location;lat;lon;timestamp;P1;durP1;ratioP1;P2;durP2;ratioP2
33154;SDS011;19511;42.682;23.332;2023-04-24T00:02:59;11.02;;;3.42;;
33154;SDS011;19511;42.682;23.332;2023-04-24T00:05:25;5.40;;;2.83;;
33154;SDS011;19511;42.682;23.332;2023-04-24T00:07:50;7.10;;;3.85;;
33154;SDS011;19511;42.682;23.332;2023-04-24T00:10:18;6.20;;;3.03;;
33154;SDS011;19511;42.682;23.332;2023-04-24T00:12:43;4.43;;;2.45;;
33154;SDS011;19511;42.682;23.332;2023-04-24T00:15:09;9.32;;;3.13;;
33154;SDS011;19511;42.682;23.332;2023-04-24T00:17:35;6.22;;;3.30;;
33154;SDS011;19511;42.682;23.332;2023-04-24T00:20:00;8.23;;;2.97;;
33154;SDS011;19511;42.682;23.332;2023-04-24T00:22:29;6.40;;;2.63;;
33154;SDS011;19511;42.682;23.332;2023-04-24T00:24:55;5.35;;;3.60;;
33154;SDS011;19511;42.682;23.332;2023-04-24T00:27:21;3.65;;;2.80;;
33154;SDS011;19511;42.682;23.332;2023-04-24T00:29:47;5.35;;;3.15;;
33154;SDS011;19511;42.682;23.332;2023-04-24T00:32:12;14.25;;;3.78;;
33154;SDS011;19511;42.682;23.332;2023-04-24T00:34:38;11.40;;;2.92;;
33154;SDS011;19511;42.682;23.332;2023-04-24T00:37:04;4.05;;;2.45;;
33154;SDS011;19511;42.682;23.332;2023-04-24T00:39:30;8.85;;;3.17;;
33154;SDS011;19511;42.682;23.332;2023-04-24T00:41:56;7.18;;;3.00;;
33154;SDS011;19511;42.682;23.332;2023-04-24T00:44:22;5.20;;;3.35;;
33154;SDS011;19511;42.682;23.332;2023-04-24T00:46:47;4.55;;;3.10;;
33154;SDS011;19511;42.682;23.332;2023-04-24T00:49:20;6.28;;;3.25;;
33154;SDS011;19511;42.682;23.332;2023-04-24T00:51:49;5.27;;;3.27;;
33154;SDS011;19511;42.682;23.332;2023-04-24T00:54:16;4.07;;;2.08;;
33154;SDS011;19511;42.682;23.332;2023-04-24T00:56:42;3.80;;;2.83;;
33154;SDS011;19511;42.682;23.332;2023-04-24T00:59:13;6.95;;;3.17;;
33154;SDS011;19511;42.682;23.332;2023-04-24T01:01:40;5.05;;;2.88;;
33154;SDS011;19511;42.682;23.332;2023-04-24T01:04:11;4.28;;;3.00;;
33154;SDS011;19511;42.682;23.332;2023-04-24T01:06:38;4.82;;;2.72;;
33154;SDS011;19511;42.682;23.332;2023-04-24T01:09:04;6.47;;;3.38;;
33154;SDS011;19511;42.682;23.332;2023-04-24T01:11:31;7.78;;;3.53;;
33154;SDS011;19511;42.682;23.332;2023-04-24T01:13:58;7.97;;;3.70;;
33154;SDS011;19511;42.682;23.332;2023-04-24T01:16:24;8.38;;;4.68;;
33154;SDS011;19511;42.682;23.332;2023-04-24T01:18:50;5.90;;;3.28;;
33154;SDS011;19511;42.682;23.332;2023-04-24T01:21:16;7.55;;;3.28;;
33154;SDS011;19511;42.682;23.332;2023-04-24T01:23:43;6.75;;;3.55;;
33154;SDS011;19511;42.682;23.332;2023-04-24T01:26:12;4.97;;;2.80;;
33154;SDS011;19511;42.682;23.332;2023-04-24T01:28:38;4.43;;;2.50;;
33154;SDS011;19511;42.682;23.332;2023-04-24T01:31:04;5.13;;;3.08;;
33154;SDS011;19511;42.682;23.332;2023-04-24T01:33:30;3.38;;;2.67;;
33154;SDS011;19511;42.682;23.332;2023-04-24T01:35:56;3.70;;;2.47;;
33154;SDS011;19511;42.682;23.332;2023-04-24T01:38:22;8.35;;;3.03;;
33154;SDS011;19511;42.682;23.332;2023-04-24T01:40:47;8.18;;;3.30;;
33154;SDS011;19511;42.682;23.332;2023-04-24T01:43:14;3.10;;;1.90;;
33154;SDS011;19511;42.682;23.332;2023-04-24T01:45:40;3.60;;;2.67;;
33154;SDS011;19511;42.682;23.332;2023-04-24T01:48:06;6.78;;;2.78;;
33154;SDS011;19511;42.682;23.332;2023-04-24T01:50:31;3.75;;;2.38;;
33154;SDS011;19511;42.682;23.332;2023-04-24T01:52:56;4.63;;;3.00;;
33154;SDS011;19511;42.682;23.332;2023-04-24T01:55:22;5.45;;;3.35;;
33154;SDS011;19511;42.682;23.332;2023-04-24T01:57:47;5.38;;;2.72;;
33154;SDS011;19511;42.682;23.332;2023-04-24T02:00:14;5.15;;;3.08;;
33154;SDS011;19511;42.682;23.332;2023-04-24T02:02:40;6.47;;;3.25;;
33154;SDS011;19511;42.682;23.332;2023-04-24T02:05:06;6.90;;;3.25;;
33154;SDS011;19511;42.682;23.332;2023-04-24T02:07:32;5.00;;;2.83;;
33154;SDS011;19511;42.682;23.332;2023-04-24T02:09:58;6.95;;;3.13;;
33154;SDS011;19511;42.682;23.332;2023-04-24T02:12:24;4.10;;;2.90;;
33154;SDS011;19511;42.682;23.332;2023-04-24T02:14:49;5.22;;;3.22;;
33154;SDS011;19511;42.682;23.332;2023-04-24T02:17:15;4.53;;;2.75;;
33154;SDS011;19511;42.682;23.332;2023-04-24T02:19:41;8.70;;;3.55;;
33154;SDS011;19511;42.682;23.332;2023-04-24T02:22:06;4.80;;;2.92;;
33154;SDS011;19511;42.682;23.332;2023-04-24T02:24:32;7.15;;;3.60;;
33154;SDS011;19511;42.682;23.332;2023-04-24T02:26:57;7.28;;;3.92;;
33154;SDS011;19511;42.682;23.332;2023-04-24T02:29:23;8.73;;;3.22;;
33154;SDS011;19511;42.682;23.332;2023-04-24T02:31:48;10.65;;;3.65;;
33154;SDS011;19511;42.682;23.332;2023-04-24T02:34:14;7.07;;;3.47;;
33154;SDS011;19511;42.682;23.332;2023-04-24T02:36:39;4.95;;;3.20;;
33154;SDS011;19511;42.682;23.332;2023-04-24T02:39:04;5.18;;;3.28;;
33154;SDS011;19511;42.682;23.332;2023-04-24T02:41:30;5.63;;;3.17;;
33154;SDS011;19511;42.682;23.332;2023-04-24T02:44:00;6.97;;;4.13;;
33154;SDS011;19511;42.682;23.332;2023-04-24T02:46:25;3.83;;;3.22;;
33154;SDS011;19511;42.682;23.332;2023-04-24T02:48:51;7.45;;;3.50;;
33154;SDS011;19511;42.682;23.332;2023-04-24T02:51:17;6.63;;;3.55;;
33154;SDS011;19511;42.682;23.332;2023-04-24T02:53:42;4.20;;;2.95;;
33154;SDS011;19511;42.682;23.332;2023-04-24T02:56:08;8.35;;;3.70;;
33154;SDS011;19511;42.682;23.332;2023-04-24T02:58:33;6.22;;;3.50;;
33154;SDS011;19511;42.682;23.332;2023-04-24T03:00:59;10.30;;;4.05;;
33154;SDS011;19511;42.682;23.332;2023-04-24T03:03:25;7.57;;;3.63;;
33154;SDS011;19511;42.682;23.332;2023-04-24T03:05:52;6.85;;;3.67;;
33154;SDS011;19511;42.682;23.332;2023-04-24T03:08:17;6.70;;;3.53;;
33154;SDS011;19511;42.682;23.332;2023-04-24T03:10:43;7.05;;;3.92;;
33154;SDS011;19511;42.682;23.332;2023-04-24T03:13:08;6.07;;;3.50;;
33154;SDS011;19511;42.682;23.332;2023-04-24T03:15:34;5.22;;;3.03;;
33154;SDS011;19511;42.682;23.332;2023-04-24T03:17:59;5.93;;;4.05;;
33154;SDS011;19511;42.682;23.332;2023-04-24T03:20:25;5.15;;;3.60;;
33154;SDS011;19511;42.682;23.332;2023-04-24T03:22:51;5.38;;;3.50;;
33154;SDS011;19511;42.682;23.332;2023-04-24T03:25:16;9.18;;;4.43;;
33154;SDS011;19511;42.682;23.332;2023-04-24T03:27:45;6.82;;;3.53;;
33154;SDS011;19511;42.682;23.332;2023-04-24T03:30:11;12.77;;;4.80;;
33154;SDS011;19511;42.682;23.332;2023-04-24T03:32:36;12.82;;;4.05;;
33154;SDS011;19511;42.682;23.332;2023-04-24T03:35:04;8.07;;;3.55;;
33154;SDS011;19511;42.682;23.332;2023-04-24T03:37:31;7.40;;;4.05;;
33154;SDS011;19511;42.682;23.332;2023-04-24T03:39:56;9.98;;;4.43;;
33154;SDS011;19511;42.682;23.332;2023-04-24T03:42:22;6.05;;;4.13;;
33154;SDS011;19511;42.682;23.332;2023-04-24T03:44:47;6.28;;;3.90;;
33154;SDS011;19511;42.682;23.332;2023-04-24T03:47:13;12.77;;;5.18;;
33154;SDS011;19511;42.682;23.332;2023-04-24T03:49:38;11.38;;;4.82;;
33154;SDS011;19511;42.682;23.332;2023-04-24T03:52:04;10.02;;;4.22;;
33154;SDS011;19511;42.682;23.332;2023-04-24T03:54:29;7.30;;;4.05;;
33154;SDS011;19511;42.682;23.332;2023-04-24T03:56:55;15.63;;;4.30;;
33154;SDS011;19511;42.682;23.332;2023-04-24T03:59:20;6.38;;;3.80;;
33154;SDS011;19511;42.682;23.332;2023-04-24T04:01:46;8.98;;;5.28;;
33154;SDS011;19511;42.682;23.332;2023-04-24T04:04:11;7.53;;;4.10;;
33154;SDS011;19511;42.682;23.332;2023-04-24T04:06:37;7.20;;;4.00;;
33154;SDS011;19511;42.682;23.332;2023-04-24T04:09:03;7.07;;;3.90;;
33154;SDS011;19511;42.682;23.332;2023-04-24T04:11:28;9.18;;;4.78;;
33154;SDS011;19511;42.682;23.332;2023-04-24T04:13:55;9.80;;;4.15;;
33154;SDS011;19511;42.682;23.332;2023-04-24T04:16:24;7.75;;;4.57;;
33154;SDS011;19511;42.682;23.332;2023-04-24T04:18:50;8.23;;;4.15;;
33154;SDS011;19511;42.682;23.332;2023-04-24T04:21:16;10.65;;;4.93;;
33154;SDS011;19511;42.682;23.332;2023-04-24T04:23:41;7.07;;;4.00;;
33154;SDS011;19511;42.682;23.332;2023-04-24T04:26:06;8.43;;;3.97;;
33154;SDS011;19511;42.682;23.332;2023-04-24T04:28:33;4.22;;;3.28;;
33154;SDS011;19511;42.682;23.332;2023-04-24T04:30:58;8.57;;;3.55;;
33154;SDS011;19511;42.682;23.332;2023-04-24T04:33:24;4.63;;;3.00;;
33154;SDS011;19511;42.682;23.332;2023-04-24T04:35:50;7.40;;;3.05;;
33154;SDS011;19511;42.682;23.332;2023-04-24T04:38:21;3.97;;;2.50;;
33154;SDS011;19511;42.682;23.332;2023-04-24T04:40:47;3.00;;;2.25;;
33154;SDS011;19511;42.682;23.332;2023-04-24T04:43:13;5.00;;;2.65;;
33154;SDS011;19511;42.682;23.332;2023-04-24T04:45:40;5.38;;;2.30;;
33154;SDS011;19511;42.682;23.332;2023-04-24T04:48:06;5.30;;;2.88;;
33154;SDS011;19511;42.682;23.332;2023-04-24T04:50:32;3.60;;;2.10;;
33154;SDS011;19511;42.682;23.332;2023-04-24T04:52:59;9.40;;;2.42;;
33154;SDS011;19511;42.682;23.332;2023-04-24T04:55:25;5.05;;;3.53;;
33154;SDS011;19511;42.682;23.332;2023-04-24T04:57:51;3.95;;;2.72;;
33154;SDS011;19511;42.682;23.332;2023-04-24T05:00:17;4.43;;;2.67;;
33154;SDS011;19511;42.682;23.332;2023-04-24T05:02:42;7.57;;;2.97;;
33154;SDS011;19511;42.682;23.332;2023-04-24T05:05:08;7.20;;;3.00;;
33154;SDS011;19511;42.682;23.332;2023-04-24T05:07:33;6.13;;;3.50;;
33154;SDS011;19511;42.682;23.332;2023-04-24T05:10:02;11.65;;;3.33;;
33154;SDS011;19511;42.682;23.332;2023-04-24T05:12:32;5.22;;;3.40;;
33154;SDS011;19511;42.682;23.332;2023-04-24T05:14:57;20.20;;;3.67;;
33154;SDS011;19511;42.682;23.332;2023-04-24T05:17:22;4.88;;;2.85;;
33154;SDS011;19511;42.682;23.332;2023-04-24T05:19:49;10.55;;;3.38;;
33154;SDS011;19511;42.682;23.332;2023-04-24T05:22:18;6.15;;;3.25;;
33154;SDS011;19511;42.682;23.332;2023-04-24T05:24:45;6.07;;;2.97;;
33154;SDS011;19511;42.682;23.332;2023-04-24T05:27:18;5.65;;;3.55;;
33154;SDS011;19511;42.682;23.332;2023-04-24T05:29:47;5.43;;;3.40;;
33154;SDS011;19511;42.682;23.332;2023-04-24T05:32:15;7.60;;;4.25;;
33154;SDS011;19511;42.682;23.332;2023-04-24T05:34:41;4.40;;;3.30;;
33154;SDS011;19511;42.682;23.332;2023-04-24T05:37:06;6.50;;;4.45;;
33154;SDS011;19511;42.682;23.332;2023-04-24T05:39:34;6.00;;;3.38;;
33154;SDS011;19511;42.682;23.332;2023-04-24T05:42:00;10.63;;;4.75;;
33154;SDS011;19511;42.682;23.332;2023-04-24T05:44:26;10.65;;;3.70;;
33154;SDS011;19511;42.682;23.332;2023-04-24T05:46:52;7.05;;;3.63;;
33154;SDS011;19511;42.682;23.332;2023-04-24T05:49:18;7.43;;;4.18;;
33154;SDS011;19511;42.682;23.332;2023-04-24T05:51:43;5.68;;;3.80;;
33154;SDS011;19511;42.682;23.332;2023-04-24T05:54:08;11.23;;;4.30;;
33154;SDS011;19511;42.682;23.332;2023-04-24T05:56:37;10.63;;;4.00;;
33154;SDS011;19511;42.682;23.332;2023-04-24T05:59:02;9.40;;;4.25;;
33154;SDS011;19511;42.682;23.332;2023-04-24T06:01:31;6.57;;;4.35;;
33154;SDS011;19511;42.682;23.332;2023-04-24T06:04:01;8.00;;;4.20;;
33154;SDS011;19511;42.682;23.332;2023-04-24T06:06:27;7.55;;;4.35;;
33154;SDS011;19511;42.682;23.332;2023-04-24T06:08:53;6.70;;;4.25;;
33154;SDS011;19511;42.682;23.332;2023-04-24T06:11:23;8.18;;;4.45;;
33154;SDS011;19511;42.682;23.332;2023-04-24T06:13:49;12.20;;;5.53;;
33154;SDS011;19511;42.682;23.332;2023-04-24T06:16:15;8.38;;;4.22;;
33154;SDS011;19511;42.682;23.332;2023-04-24T06:18:43;8.77;;;5.22;;
33154;SDS011;19511;42.682;23.332;2023-04-24T06:21:10;7.80;;;4.15;;
33154;SDS011;19511;42.682;23.332;2023-04-24T06:23:35;15.85;;;4.20;;
33154;SDS011;19511;42.682;23.332;2023-04-24T06:26:01;14.52;;;5.03;;
33154;SDS011;19511;42.682;23.332;2023-04-24T06:28:27;7.60;;;3.88;;
33154;SDS011;19511;42.682;23.332;2023-04-24T06:30:53;10.43;;;5.07;;
33154;SDS011;19511;42.682;23.332;2023-04-24T06:33:21;6.80;;;3.88;;
33154;SDS011;19511;42.682;23.332;2023-04-24T06:35:49;9.10;;;4.20;;
33154;SDS011;19511;42.682;23.332;2023-04-24T06:38:19;8.18;;;4.25;;
33154;SDS011;19511;42.682;23.332;2023-04-24T06:40:48;10.30;;;4.80;;
33154;SDS011;19511;42.682;23.332;2023-04-24T06:43:17;15.27;;;5.40;;
33154;SDS011;19511;42.682;23.332;2023-04-24T06:45:46;9.60;;;4.82;;
33154;SDS011;19511;42.682;23.332;2023-04-24T06:48:12;9.00;;;6.10;;
33154;SDS011;19511;42.682;23.332;2023-04-24T06:50:47;8.43;;;5.10;;
33154;SDS011;19511;42.682;23.332;2023-04-24T06:53:13;11.23;;;5.35;;
33154;SDS011;19511;42.682;23.332;2023-04-24T06:55:43;11.95;;;5.07;;
33154;SDS011;19511;42.682;23.332;2023-04-24T06:58:13;16.40;;;4.57;;
33154;SDS011;19511;42.682;23.332;2023-04-24T07:00:41;15.23;;;5.60;;
33154;SDS011;19511;42.682;23.332;2023-04-24T07:03:07;11.40;;;4.72;;
33154;SDS011;19511;42.682;23.332;2023-04-24T07:05:33;9.00;;;4.80;;
33154;SDS011;19511;42.682;23.332;2023-04-24T07:08:05;9.32;;;5.57;;
33154;SDS011;19511;42.682;23.332;2023-04-24T07:10:31;8.15;;;4.25;;
33154;SDS011;19511;42.682;23.332;2023-04-24T07:12:59;9.20;;;5.15;;
33154;SDS011;19511;42.682;23.332;2023-04-24T07:15:30;14.18;;;4.88;;
33154;SDS011;19511;42.682;23.332;2023-04-24T07:17:59;8.23;;;5.18;;
33154;SDS011;19511;42.682;23.332;2023-04-24T07:20:24;12.38;;;4.28;;
33154;SDS011;19511;42.682;23.332;2023-04-24T07:22:51;7.05;;;4.55;;
33154;SDS011;19511;42.682;23.332;2023-04-24T07:25:20;8.65;;;4.82;;
33154;SDS011;19511;42.682;23.332;2023-04-24T07:27:46;8.68;;;4.75;;
33154;SDS011;19511;42.682;23.332;2023-04-24T07:30:11;9.07;;;4.53;;
33154;SDS011;19511;42.682;23.332;2023-04-24T07:32:37;17.95;;;5.47;;
33154;SDS011;19511;42.682;23.332;2023-04-24T07:35:02;7.53;;;4.63;;
33154;SDS011;19511;42.682;23.332;2023-04-24T07:37:29;8.02;;;4.45;;
33154;SDS011;19511;42.682;23.332;2023-04-24T07:39:57;17.95;;;4.78;;
33154;SDS011;19511;42.682;23.332;2023-04-24T07:42:23;13.93;;;5.82;;
33154;SDS011;19511;42.682;23.332;2023-04-24T07:44:49;7.22;;;4.10;;
33154;SDS011;19511;42.682;23.332;2023-04-24T07:47:18;7.13;;;3.97;;
33154;SDS011;19511;42.682;23.332;2023-04-24T07:49:43;10.55;;;4.93;;
33154;SDS011;19511;42.682;23.332;2023-04-24T07:52:08;7.53;;;3.85;;
33154;SDS011;19511;42.682;23.332;2023-04-24T07:54:34;6.72;;;3.97;;
33154;SDS011;19511;42.682;23.332;2023-04-24T07:56:59;8.40;;;4.03;;
33154;SDS011;19511;42.682;23.332;2023-04-24T07:59:25;11.02;;;5.13;;
33154;SDS011;19511;42.682;23.332;2023-04-24T08:01:51;8.27;;;3.95;;
33154;SDS011;19511;42.682;23.332;2023-04-24T08:04:16;8.27;;;3.85;;
33154;SDS011;19511;42.682;23.332;2023-04-24T08:06:43;7.68;;;4.28;;
33154;SDS011;19511;42.682;23.332;2023-04-24T08:09:08;8.60;;;4.25;;
33154;SDS011;19511;42.682;23.332;2023-04-24T08:11:36;6.88;;;4.03;;
33154;SDS011;19511;42.682;23.332;2023-04-24T08:14:05;10.65;;;3.33;;
33154;SDS011;19511;42.682;23.332;2023-04-24T08:16:31;7.38;;;3.38;;
33154;SDS011;19511;42.682;23.332;2023-04-24T08:18:58;5.43;;;3.67;;
33154;SDS011;19511;42.682;23.332;2023-04-24T08:21:23;5.72;;;3.15;;
33154;SDS011;19511;42.682;23.332;2023-04-24T08:23:48;13.60;;;4.13;;
33154;SDS011;19511;42.682;23.332;2023-04-24T08:26:15;6.80;;;3.85;;
33154;SDS011;19511;42.682;23.332;2023-04-24T08:28:40;5.75;;;3.08;;
33154;SDS011;19511;42.682;23.332;2023-04-24T08:31:10;4.38;;;3.00;;
33154;SDS011;19511;42.682;23.332;2023-04-24T08:33:35;8.57;;;3.40;;
33154;SDS011;19511;42.682;23.332;2023-04-24T08:36:04;6.18;;;4.10;;
33154;SDS011;19511;42.682;23.332;2023-04-24T08:38:30;5.93;;;3.25;;
33154;SDS011;19511;42.682;23.332;2023-04-24T08:40:57;6.55;;;3.13;;
33154;SDS011;19511;42.682;23.332;2023-04-24T08:43:24;6.07;;;3.58;;
33154;SDS011;19511;42.682;23.332;2023-04-24T08:45:51;5.97;;;3.25;;
33154;SDS011;19511;42.682;23.332;2023-04-24T08:48:17;4.32;;;3.00;;
33154;SDS011;19511;42.682;23.332;2023-04-24T08:50:43;9.30;;;3.08;;
33154;SDS011;19511;42.682;23.332;2023-04-24T08:53:09;14.57;;;2.95;;
33154;SDS011;19511;42.682;23.332;2023-04-24T08:55:35;6.05;;;2.97;;
33154;SDS011;19511;42.682;23.332;2023-04-24T08:58:02;6.40;;;2.92;;
33154;SDS011;19511;42.682;23.332;2023-04-24T09:00:28;7.43;;;3.50;;
33154;SDS011;19511;42.682;23.332;2023-04-24T09:02:57;5.40;;;3.60;;
33154;SDS011;19511;42.682;23.332;2023-04-24T09:05:27;12.00;;;4.07;;
33154;SDS011;19511;42.682;23.332;2023-04-24T09:07:54;6.25;;;3.40;;
33154;SDS011;19511;42.682;23.332;2023-04-24T09:10:21;5.60;;;3.17;;
33154;SDS011;19511;42.682;23.332;2023-04-24T09:12:49;10.48;;;4.05;;
33154;SDS011;19511;42.682;23.332;2023-04-24T09:15:16;5.85;;;3.50;;
33154;SDS011;19511;42.682;23.332;2023-04-24T09:17:42;4.88;;;3.17;;
33154;SDS011;19511;42.682;23.332;2023-04-24T09:20:08;6.47;;;3.47;;
33154;SDS011;19511;42.682;23.332;2023-04-24T09:22:34;4.68;;;3.13;;
33154;SDS011;19511;42.682;23.332;2023-04-24T09:25:03;4.03;;;2.67;;
33154;SDS011;19511;42.682;23.332;2023-04-24T09:27:32;9.45;;;4.45;;
33154;SDS011;19511;42.682;23.332;2023-04-24T09:30:01;8.32;;;3.45;;
33154;SDS011;19511;42.682;23.332;2023-04-24T09:32:28;4.43;;;3.10;;
33154;SDS011;19511;42.682;23.332;2023-04-24T09:37:36;7.57;;;3.63;;
33154;SDS011;19511;42.682;23.332;2023-04-24T09:42:37;5.93;;;2.90;;
33154;SDS011;19511;42.682;23.332;2023-04-24T09:45:09;6.25;;;2.80;;
33154;SDS011;19511;42.682;23.332;2023-04-24T09:47:38;4.38;;;2.85;;
33154;SDS011;19511;42.682;23.332;2023-04-24T09:50:14;5.53;;;2.85;;
33154;SDS011;19511;42.682;23.332;2023-04-24T09:52:42;8.82;;;3.35;;
33154;SDS011;19511;42.682;23.332;2023-04-24T09:55:17;9.45;;;3.33;;
33154;SDS011;19511;42.682;23.332;2023-04-24T09:57:51;6.20;;;2.67;;
33154;SDS011;19511;42.682;23.332;2023-04-24T10:00:26;4.07;;;2.90;;
33154;SDS011;19511;42.682;23.332;2023-04-24T10:03:01;3.78;;;2.28;;
33154;SDS011;19511;42.682;23.332;2023-04-24T10:05:28;3.75;;;2.55;;
33154;SDS011;19511;42.682;23.332;2023-04-24T10:07:57;4.13;;;2.67;;
33154;SDS011;19511;42.682;23.332;2023-04-24T10:10:29;4.85;;;3.00;;
33154;SDS011;19511;42.682;23.332;2023-04-24T10:13:00;11.57;;;2.63;;
33154;SDS011;19511;42.682;23.332;2023-04-24T10:15:26;15.73;;;3.15;;
33154;SDS011;19511;42.682;23.332;2023-04-24T10:17:52;4.22;;;2.40;;
33154;SDS011;19511;42.682;23.332;2023-04-24T10:20:22;6.68;;;2.50;;
33154;SDS011;19511;42.682;23.332;2023-04-24T10:22:52;5.95;;;2.55;;
33154;SDS011;19511;42.682;23.332;2023-04-24T10:25:23;4.05;;;2.90;;
33154;SDS011;19511;42.682;23.332;2023-04-24T10:27:51;5.25;;;2.85;;
33154;SDS011;19511;42.682;23.332;2023-04-24T10:30:18;10.57;;;2.83;;
33154;SDS011;19511;42.682;23.332;2023-04-24T10:32:44;5.22;;;2.53;;
33154;SDS011;19511;42.682;23.332;2023-04-24T10:35:13;8.65;;;2.63;;
33154;SDS011;19511;42.682;23.332;2023-04-24T10:37:42;5.82;;;3.05;;
33154;SDS011;19511;42.682;23.332;2023-04-24T10:40:11;6.50;;;2.78;;
33154;SDS011;19511;42.682;23.332;2023-04-24T10:42:41;3.33;;;2.38;;
33154;SDS011;19511;42.682;23.332;2023-04-24T10:45:27;4.75;;;2.38;;
33154;SDS011;19511;42.682;23.332;2023-04-24T10:48:03;5.20;;;2.78;;
33154;SDS011;19511;42.682;23.332;2023-04-24T10:53:12;4.20;;;2.72;;
33154;SDS011;19511;42.682;23.332;2023-04-24T10:55:42;7.45;;;2.55;;
33154;SDS011;19511;42.682;23.332;2023-04-24T10:58:09;5.38;;;2.70;;
33154;SDS011;19511;42.682;23.332;2023-04-24T11:00:39;11.05;;;2.33;;
33154;SDS011;19511;42.682;23.332;2023-04-24T11:03:06;3.85;;;2.30;;
33154;SDS011;19511;42.682;23.332;2023-04-24T11:08:26;4.55;;;2.38;;
33154;SDS011;19511;42.682;23.332;2023-04-24T11:11:18;4.33;;;2.70;;
33154;SDS011;19511;42.682;23.332;2023-04-24T11:29:37;65.55;;;4.68;;
33154;SDS011;19511;42.682;23.332;2023-04-24T11:32:16;4.03;;;3.03;;
33154;SDS011;19511;42.682;23.332;2023-04-24T11:37:37;3.28;;;1.90;;
33154;SDS011;19511;42.682;23.332;2023-04-24T11:40:07;2.63;;;2.30;;
33154;SDS011;19511;42.682;23.332;2023-04-24T11:42:38;2.97;;;2.28;;
33154;SDS011;19511;42.682;23.332;2023-04-24T11:45:09;5.30;;;2.10;;
33154;SDS011;19511;42.682;23.332;2023-04-24T11:47:36;2.97;;;2.20;;
33154;SDS011;19511;42.682;23.332;2023-04-24T11:50:02;3.28;;;1.90;;
33154;SDS011;19511;42.682;23.332;2023-04-24T11:52:31;3.13;;;2.60;;
33154;SDS011;19511;42.682;23.332;2023-04-24T11:54:59;6.28;;;2.08;;
33154;SDS011;19511;42.682;23.332;2023-04-24T11:57:25;2.40;;;1.90;;
33154;SDS011;19511;42.682;23.332;2023-04-24T11:59:58;3.83;;;2.30;;
33154;SDS011;19511;42.682;23.332;2023-04-24T12:02:25;3.63;;;2.20;;
33154;SDS011;19511;42.682;23.332;2023-04-24T12:04:55;4.13;;;2.40;;
33154;SDS011;19511;42.682;23.332;2023-04-24T12:07:21;3.33;;;2.30;;
33154;SDS011;19511;42.682;23.332;2023-04-24T12:09:48;3.17;;;2.22;;
33154;SDS011;19511;42.682;23.332;2023-04-24T12:12:24;3.42;;;2.40;;
33154;SDS011;19511;42.682;23.332;2023-04-24T12:17:24;3.78;;;2.33;;
33154;SDS011;19511;42.682;23.332;2023-04-24T12:19:51;4.60;;;2.60;;
33154;SDS011;19511;42.682;23.332;2023-04-24T12:22:18;5.43;;;2.22;;
33154;SDS011;19511;42.682;23.332;2023-04-24T12:27:30;2.90;;;2.03;;
33154;SDS011;19511;42.682;23.332;2023-04-24T12:30:05;2.60;;;2.08;;
33154;SDS011;19511;42.682;23.332;2023-04-24T12:32:35;6.47;;;2.92;;
33154;SDS011;19511;42.682;23.332;2023-04-24T12:35:10;4.07;;;2.30;;
33154;SDS011;19511;42.682;23.332;2023-04-24T12:37:35;5.53;;;2.70;;
33154;SDS011;19511;42.682;23.332;2023-04-24T12:40:03;3.00;;;1.90;;
33154;SDS011;19511;42.682;23.332;2023-04-24T12:42:45;2.55;;;2.05;;
33154;SDS011;19511;42.682;23.332;2023-04-24T12:47:38;3.38;;;2.00;;
33154;SDS011;19511;42.682;23.332;2023-04-24T12:50:12;4.53;;;2.33;;
33154;SDS011;19511;42.682;23.332;2023-04-24T12:52:40;1.88;;;1.60;;
33154;SDS011;19511;42.682;23.332;2023-04-24T12:55:06;3.00;;;2.17;;
33154;SDS011;19511;42.682;23.332;2023-04-24T12:57:33;6.32;;;2.28;;
33154;SDS011;19511;42.682;23.332;2023-04-24T13:00:00;6.88;;;2.00;;
33154;SDS011;19511;42.682;23.332;2023-04-24T13:02:27;8.35;;;2.30;;
33154;SDS011;19511;42.682;23.332;2023-04-24T13:04:57;3.88;;;2.47;;
33154;SDS011;19511;42.682;23.332;2023-04-24T13:07:24;6.03;;;1.85;;
33154;SDS011;19511;42.682;23.332;2023-04-24T13:09:54;3.75;;;2.70;;
33154;SDS011;19511;42.682;23.332;2023-04-24T13:12:20;4.82;;;2.55;;
33154;SDS011;19511;42.682;23.332;2023-04-24T13:14:49;3.78;;;2.72;;
33154;SDS011;19511;42.682;23.332;2023-04-24T13:17:15;3.97;;;2.25;;
33154;SDS011;19511;42.682;23.332;2023-04-24T13:19:41;1.98;;;1.77;;
33154;SDS011;19511;42.682;23.332;2023-04-24T13:22:09;3.70;;;2.50;;
33154;SDS011;19511;42.682;23.332;2023-04-24T13:24:38;9.00;;;2.50;;
33154;SDS011;19511;42.682;23.332;2023-04-24T13:27:06;4.38;;;2.28;;
33154;SDS011;19511;42.682;23.332;2023-04-24T13:29:31;5.05;;;2.28;;
33154;SDS011;19511;42.682;23.332;2023-04-24T13:31:57;5.00;;;2.33;;
33154;SDS011;19511;42.682;23.332;2023-04-24T13:34:23;7.30;;;2.65;;
33154;SDS011;19511;42.682;23.332;2023-04-24T13:36:50;3.25;;;2.35;;
33154;SDS011;19511;42.682;23.332;2023-04-24T13:39:18;2.83;;;2.13;;
33154;SDS011;19511;42.682;23.332;2023-04-24T13:41:45;6.97;;;2.50;;
33154;SDS011;19511;42.682;23.332;2023-04-24T13:44:18;5.70;;;2.30;;
33154;SDS011;19511;42.682;23.332;2023-04-24T13:46:46;2.53;;;1.92;;
33154;SDS011;19511;42.682;23.332;2023-04-24T13:49:13;5.55;;;2.60;;
33154;SDS011;19511;42.682;23.332;2023-04-24T13:51:39;3.67;;;2.25;;
33154;SDS011;19511;42.682;23.332;2023-04-24T13:54:05;5.78;;;2.35;;
33154;SDS011;19511;42.682;23.332;2023-04-24T13:56:31;3.50;;;2.30;;
33154;SDS011;19511;42.682;23.332;2023-04-24T13:58:56;9.15;;;2.70;;
33154;SDS011;19511;42.682;23.332;2023-04-24T14:01:26;4.03;;;2.58;;
33154;SDS011;19511;42.682;23.332;2023-04-24T14:03:55;5.15;;;2.47;;
33154;SDS011;19511;42.682;23.332;2023-04-24T14:06:21;7.43;;;2.60;;
33154;SDS011;19511;42.682;23.332;2023-04-24T14:08:51;3.60;;;2.40;;
33154;SDS011;19511;42.682;23.332;2023-04-24T14:11:17;4.80;;;2.35;;
33154;SDS011;19511;42.682;23.332;2023-04-24T14:13:43;8.60;;;2.85;;
33154;SDS011;19511;42.682;23.332;2023-04-24T14:16:10;4.15;;;2.42;;
33154;SDS011;19511;42.682;23.332;2023-04-24T14:18:36;6.43;;;2.60;;
33154;SDS011;19511;42.682;23.332;2023-04-24T14:21:04;2.78;;;2.40;;
33154;SDS011;19511;42.682;23.332;2023-04-24T14:23:30;2.38;;;2.00;;
33154;SDS011;19511;42.682;23.332;2023-04-24T14:25:58;4.57;;;2.67;;
33154;SDS011;19511;42.682;23.332;2023-04-24T14:28:30;4.28;;;2.75;;
33154;SDS011;19511;42.682;23.332;2023-04-24T14:30:56;6.85;;;2.50;;
33154;SDS011;19511;42.682;23.332;2023-04-24T14:33:21;2.88;;;1.58;;
33154;SDS011;19511;42.682;23.332;2023-04-24T14:35:47;3.55;;;1.60;;
33154;SDS011;19511;42.682;23.332;2023-04-24T14:38:21;3.63;;;2.20;;
33154;SDS011;19511;42.682;23.332;2023-04-24T14:40:47;6.28;;;2.40;;
33154;SDS011;19511;42.682;23.332;2023-04-24T14:43:13;4.03;;;2.40;;
33154;SDS011;19511;42.682;23.332;2023-04-24T14:45:41;2.38;;;1.85;;
33154;SDS011;19511;42.682;23.332;2023-04-24T14:48:07;8.05;;;2.55;;
33154;SDS011;19511;42.682;23.332;2023-04-24T14:50:33;4.18;;;2.38;;
33154;SDS011;19511;42.682;23.332;2023-04-24T14:52:59;11.93;;;3.20;;
33154;SDS011;19511;42.682;23.332;2023-04-24T14:55:28;3.65;;;1.90;;
33154;SDS011;19511;42.682;23.332;2023-04-24T15:00:36;3.70;;;2.15;;
33154;SDS011;19511;42.682;23.332;2023-04-24T15:03:10;4.22;;;1.52;;
33154;SDS011;19511;42.682;23.332;2023-04-24T15:05:46;4.78;;;2.17;;
33154;SDS011;19511;42.682;23.332;2023-04-24T15:08:31;2.78;;;2.08;;
33154;SDS011;19511;42.682;23.332;2023-04-24T15:11:11;5.93;;;2.72;;
33154;SDS011;19511;42.682;23.332;2023-04-24T15:13:37;2.85;;;2.05;;
33154;SDS011;19511;42.682;23.332;2023-04-24T15:16:02;3.95;;;2.80;;